Pagina principale
METAR-TAF:

METAR-TAF

Aeroporti :

Aeroporto di Enfida-Hammamet

Hammamet, Tunisia

latitudine: 36-04-34N, longitudine: 10-26-19E, altezza: 6 m

Osservazione

Il bollettino è stato emesso 33 minuti fa, alle 11:00 UTC
Vento 17 kt da nord
Temperature 23°C
Umidità 65%
Pressione 1017 hPa
Visibilità 10 km o più
Nubi sparse ad un'altezza di 4000 ft

METAR: DTNH 261100Z 35017KT 9999 SCT040 23/16 Q1017

Ora: 12:33 (11:33 UTC)

Previsione

Il bollettino è stato emesso 6 ore e 33 minuti fa, alle 05:00 UTC
Previsione valida dal 26 alle 06 UTC al 27 alle 06 UTC
Vento 12 kt da nord/nord-ovest
Visibilità 10 km o più
Poco nuvoloso ad un'altezza di 2300 ft
Nubi sparse ad un'altezza di 3300 ft
Probabilità 30% :
Temporaneamente
dal 26 alle 06 UTC al 26 alle 12 UTC
Vento 20 kt da nord con raffiche fino a 30 kt
Poco nuvoloso ad un'altezza di 2300 ft, Cumulonembo.
temporale, pioggia

TAF: DTNH 260500Z 2606/2706 33012KT 9999 FEW023 SCT033 PROB30 TEMPO 2606/2612 35020G30KT TSRA FEW023CB

Osservazioni e previsioni meteorologiche di più di 4000 aeroporti (messaggi METAR e TAF).

Le stazioni disponibili sono rappresentate dai dischi gialli e rossi sulla carta.

Puntare il mouse per vedere il nome della stazione.

Clicca sopra per visualizzare le osservazioni e previsioni meteorologiche.

Per cambiare la mappa : fare clic sui pulsanti verdi con una croce nera per ingrandire, il pulsante verde con un trattino per diminuire, o sulla freccia verde per le mappe adiacenti.


METAR-TAF: